Maritime Instructor — WCW8625 — position and weather

sailwx.info

Track history (hours):
 
Tides and Currents Weather Stations Pressure Air Temp Water Temp Dewpoint Dewpoint Depression Visibility Wind Speed Wind Dir Waves Ship Positions

Maritime Instructor

Owner: WASHINGTON, STATE OF, SEATTLE, WA. More information available from US FCC via Universal Licensing System and Coast Guard Vessel Documentation Center.

Last reported at 2015-Apr-18 21:33 UTC. Time now 2015-Apr-21 09:52 UTC.
Position N 47°40' W 122°24'.

Length 30 m; draft 2 m.

Type: Ship. MMSI: 303556000.

Date/timePositionNaut miles runAvg speedWind from/ knotsBaromVisibWave heightAir tempDewpointWater temp
2015-Apr-18 21:33N 47°40' W 122°24'10 9.6
2015-Apr-18 20:34N 47°50' W 122°23'1111.2
2015-Apr-18 19:33N 47°59' W 122°15'9 8.6
2015-Apr-18 18:33N 47°54' W 122°25'1212.1
2015-Apr-18 17:33N 47°42' W 122°26'7 7.3
2015-Apr-18 16:33N 47°36' W 122°21'5 4.7
2015-Apr-18 15:33N 47°40' W 122°24'1 0.1
2015-Apr-18 01:11N 47°40' W 122°23'1 1.9
2015-Apr-18 00:32N 47°40' W 122°24'4 4.2
2015-Apr-17 23:33N 47°36' W 122°22'1 0.9
2015-Apr-17 22:29N 47°37' W 122°22'3 3.5
2015-Apr-17 21:33N 47°40' W 122°24'1 0.8
2015-Apr-17 20:29N 47°40' W 122°23'0 0.1
2015-Apr-17 17:28N 47°40' W 122°23'0 0.0
2015-Apr-17 16:33N 47°40' W 122°23'  
2015-Apr-15 01:33N 47°40' W 122°23'3 2.7
2015-Apr-15 00:33N 47°41' W 122°25'6 6.3
2015-Apr-14 23:33N 47°41' W 122°35'5 5.4
2015-Apr-14 22:33N 47°36' W 122°35'4 3.9
2015-Apr-14 21:33N 47°33' W 122°38'0 0.0
2015-Apr-14 20:33N 47°33' W 122°38'1110.9
2015-Apr-14 19:33N 47°43' W 122°33'8 8.2
2015-Apr-14 18:33N 47°39' W 122°23'0 0.2
2015-Apr-14 17:33N 47°40' W 122°23'1 1.2
2015-Apr-14 16:33N 47°39' W 122°21'  
2015-Apr-11 01:27N 47°40' W 122°23'2 2.4
2015-Apr-11 00:34N 47°41' W 122°25'7 7.4
2015-Apr-10 23:33N 47°35' W 122°33'5 4.6
2015-Apr-10 22:34N 47°33' W 122°38'0 0.0
2015-Apr-10 21:33N 47°33' W 122°38'6 6.3
2015-Apr-10 20:33N 47°34' W 122°29'7 6.5
2015-Apr-10 19:33N 47°40' W 122°24'1 1.0
2015-Apr-10 18:33N 47°40' W 122°23'0 0.0
2015-Apr-10 17:33N 47°40' W 122°23'  
Track history (hours):
 
Tides and Currents Weather Stations Pressure Air Temp Water Temp Dewpoint Dewpoint Depression Visibility Wind Speed Wind Dir Waves Ship Positions

Maritime Instructor

Owner: WASHINGTON, STATE OF, SEATTLE, WA. More information available from US FCC via Universal Licensing System and Coast Guard Vessel Documentation Center.

Last reported at 2015-Apr-18 21:33 UTC. Time now 2015-Apr-21 09:52 UTC.
Position N 47°40' W 122°24'.

Length 30 m; draft 2 m.

Type: Ship. MMSI: 303556000.

Date/timePositionNaut miles runAvg speedWind from/ knotsBaromVisibWave heightAir tempDewpointWater temp
2015-Apr-18 21:33N 47°40' W 122°24'10 9.6
2015-Apr-18 20:34N 47°50' W 122°23'1111.2
2015-Apr-18 19:33N 47°59' W 122°15'9 8.6
2015-Apr-18 18:33N 47°54' W 122°25'1212.1
2015-Apr-18 17:33N 47°42' W 122°26'7 7.3
2015-Apr-18 16:33N 47°36' W 122°21'5 4.7
2015-Apr-18 15:33N 47°40' W 122°24'1 0.1
2015-Apr-18 01:11N 47°40' W 122°23'1 1.9
2015-Apr-18 00:32N 47°40' W 122°24'4 4.2
2015-Apr-17 23:33N 47°36' W 122°22'1 0.9
2015-Apr-17 22:29N 47°37' W 122°22'3 3.5
2015-Apr-17 21:33N 47°40' W 122°24'1 0.8
2015-Apr-17 20:29N 47°40' W 122°23'0 0.1
2015-Apr-17 17:28N 47°40' W 122°23'0 0.0
2015-Apr-17 16:33N 47°40' W 122°23'  
2015-Apr-15 01:33N 47°40' W 122°23'3 2.7
2015-Apr-15 00:33N 47°41' W 122°25'6 6.3
2015-Apr-14 23:33N 47°41' W 122°35'5 5.4
2015-Apr-14 22:33N 47°36' W 122°35'4 3.9
2015-Apr-14 21:33N 47°33' W 122°38'0 0.0
2015-Apr-14 20:33N 47°33' W 122°38'1110.9
2015-Apr-14 19:33N 47°43' W 122°33'8 8.2
2015-Apr-14 18:33N 47°39' W 122°23'0 0.2
2015-Apr-14 17:33N 47°40' W 122°23'1 1.2
2015-Apr-14 16:33N 47°39' W 122°21'  
2015-Apr-11 01:27N 47°40' W 122°23'2 2.4
2015-Apr-11 00:34N 47°41' W 122°25'7 7.4
2015-Apr-10 23:33N 47°35' W 122°33'5 4.6
2015-Apr-10 22:34N 47°33' W 122°38'0 0.0
2015-Apr-10 21:33N 47°33' W 122°38'6 6.3
2015-Apr-10 20:33N 47°34' W 122°29'7 6.5
2015-Apr-10 19:33N 47°40' W 122°24'1 1.0
2015-Apr-10 18:33N 47°40' W 122°23'0 0.0
2015-Apr-10 17:33N 47°40' W 122°23'  

Dump ship's entire track history